Terminal Aerodrome Forecast
Issued by NWS

Home | Current Version | Previous Version | Text Only | Print | Product List | Glossary On
Versions: 1 2 3 4 5 6 7 8 9 10 11 12 13 14 15 16 17 18 19
221
FTUS44 KTSA 220904 AAA
TAFXNA
TAF AMD
KXNA 220904Z 2209/2306 35004KT P6SM SKC
      TEMPO 2209/2211 2SM BR SCT002
     FM221100 00000KT 2SM BR SCT003
     FM221500 VRB03KT P6SM SCT010
     FM221700 17005KT P6SM SCT025
     FM222000 17005KT P6SM VCTS SCT035CB
     FM230000 16004KT P6SM SCT250=

USA.gov is the U.S. government's official web portal to all federal, state and local government web resources and services.